sensor_id;sensor_type;location;lat;lon;timestamp;temperature;humidity
75210;DHT22;63796;53.136;14.882;2023-07-20T00:00:15;14.60;99.90
75210;DHT22;63796;53.136;14.882;2023-07-20T00:03:09;14.60;99.90
75210;DHT22;63796;53.136;14.882;2023-07-20T00:05:43;14.70;99.90
75210;DHT22;63796;53.136;14.882;2023-07-20T00:08:11;14.70;99.90
75210;DHT22;63796;53.136;14.882;2023-07-20T00:10:40;14.60;99.90
75210;DHT22;63796;53.136;14.882;2023-07-20T00:13:08;14.60;99.90
75210;DHT22;63796;53.136;14.882;2023-07-20T00:15:35;14.70;99.90
75210;DHT22;63796;53.136;14.882;2023-07-20T00:18:04;14.80;99.90
75210;DHT22;63796;53.136;14.882;2023-07-20T00:20:32;14.70;99.90
75210;DHT22;63796;53.136;14.882;2023-07-20T00:22:59;14.40;99.90
75210;DHT22;63796;53.136;14.882;2023-07-20T00:25:27;14.40;99.90
75210;DHT22;63796;53.136;14.882;2023-07-20T00:27:54;14.50;99.90
75210;DHT22;63796;53.136;14.882;2023-07-20T00:30:21;14.40;99.90
75210;DHT22;63796;53.136;14.882;2023-07-20T00:32:48;14.50;99.90
75210;DHT22;63796;53.136;14.882;2023-07-20T00:35:16;14.50;99.90
75210;DHT22;63796;53.136;14.882;2023-07-20T00:37:43;14.60;99.90
75210;DHT22;63796;53.136;14.882;2023-07-20T00:40:10;14.60;99.90
75210;DHT22;63796;53.136;14.882;2023-07-20T00:46:44;14.70;99.90
75210;DHT22;63796;53.136;14.882;2023-07-20T00:49:14;14.70;99.90
75210;DHT22;63796;53.136;14.882;2023-07-20T00:51:42;14.60;99.90
75210;DHT22;63796;53.136;14.882;2023-07-20T00:54:09;14.50;99.90
75210;DHT22;63796;53.136;14.882;2023-07-20T00:56:36;14.20;99.90
75210;DHT22;63796;53.136;14.882;2023-07-20T00:59:04;14.30;99.90
75210;DHT22;63796;53.136;14.882;2023-07-20T01:01:31;14.40;99.90
75210;DHT22;63796;53.136;14.882;2023-07-20T01:03:59;14.40;99.90
75210;DHT22;63796;53.136;14.882;2023-07-20T01:06:32;14.20;99.90
75210;DHT22;63796;53.136;14.882;2023-07-20T01:14:31;14.60;99.90
75210;DHT22;63796;53.136;14.882;2023-07-20T01:17:00;14.70;99.90
75210;DHT22;63796;53.136;14.882;2023-07-20T01:19:27;14.80;99.90
75210;DHT22;63796;53.136;14.882;2023-07-20T01:22:09;15.00;99.90
75210;DHT22;63796;53.136;14.882;2023-07-20T01:32:49;15.60;99.90
75210;DHT22;63796;53.136;14.882;2023-07-20T01:35:20;15.60;99.90
75210;DHT22;63796;53.136;14.882;2023-07-20T01:37:53;15.40;99.90
75210;DHT22;63796;53.136;14.882;2023-07-20T01:40:21;15.40;99.90
75210;DHT22;63796;53.136;14.882;2023-07-20T01:42:50;15.30;99.90
75210;DHT22;63796;53.136;14.882;2023-07-20T01:45:18;15.20;99.90
75210;DHT22;63796;53.136;14.882;2023-07-20T01:47:46;15.10;99.90
75210;DHT22;63796;53.136;14.882;2023-07-20T01:50:13;15.10;99.90
75210;DHT22;63796;53.136;14.882;2023-07-20T01:52:40;15.20;99.90
75210;DHT22;63796;53.136;14.882;2023-07-20T01:55:08;15.30;99.90
75210;DHT22;63796;53.136;14.882;2023-07-20T01:57:35;15.50;99.90
75210;DHT22;63796;53.136;14.882;2023-07-20T02:00:03;15.50;99.90
75210;DHT22;63796;53.136;14.882;2023-07-20T02:02:30;15.30;99.90
75210;DHT22;63796;53.136;14.882;2023-07-20T02:04:58;15.40;99.90
75210;DHT22;63796;53.136;14.882;2023-07-20T02:07:25;15.40;99.90
75210;DHT22;63796;53.136;14.882;2023-07-20T02:09:53;15.40;99.90
75210;DHT22;63796;53.136;14.882;2023-07-20T02:12:20;15.40;99.90
75210;DHT22;63796;53.136;14.882;2023-07-20T02:14:47;15.40;99.90
75210;DHT22;63796;53.136;14.882;2023-07-20T02:17:14;15.20;99.90
75210;DHT22;63796;53.136;14.882;2023-07-20T02:19:42;15.10;99.90
75210;DHT22;63796;53.136;14.882;2023-07-20T02:22:09;15.30;99.90
75210;DHT22;63796;53.136;14.882;2023-07-20T02:24:36;15.40;99.90
75210;DHT22;63796;53.136;14.882;2023-07-20T02:27:04;15.50;99.90
75210;DHT22;63796;53.136;14.882;2023-07-20T02:29:31;15.60;99.90
75210;DHT22;63796;53.136;14.882;2023-07-20T02:31:58;15.80;99.90
75210;DHT22;63796;53.136;14.882;2023-07-20T02:34:26;15.80;99.90
75210;DHT22;63796;53.136;14.882;2023-07-20T02:36:53;16.00;99.90
75210;DHT22;63796;53.136;14.882;2023-07-20T02:39:23;16.00;99.90
75210;DHT22;63796;53.136;14.882;2023-07-20T02:41:50;15.90;99.90
75210;DHT22;63796;53.136;14.882;2023-07-20T02:44:17;15.80;99.90
75210;DHT22;63796;53.136;14.882;2023-07-20T02:46:45;15.80;99.90
75210;DHT22;63796;53.136;14.882;2023-07-20T02:49:12;15.80;99.90
75210;DHT22;63796;53.136;14.882;2023-07-20T02:51:39;15.80;99.90
75210;DHT22;63796;53.136;14.882;2023-07-20T02:54:06;15.80;99.90
75210;DHT22;63796;53.136;14.882;2023-07-20T02:56:34;15.70;99.90
75210;DHT22;63796;53.136;14.882;2023-07-20T02:59:01;15.70;99.90
75210;DHT22;63796;53.136;14.882;2023-07-20T03:01:29;15.60;99.90
75210;DHT22;63796;53.136;14.882;2023-07-20T03:03:57;15.60;99.90
75210;DHT22;63796;53.136;14.882;2023-07-20T03:06:24;15.60;99.90
75210;DHT22;63796;53.136;14.882;2023-07-20T03:08:52;15.70;99.90
75210;DHT22;63796;53.136;14.882;2023-07-20T03:11:20;15.80;99.90
75210;DHT22;63796;53.136;14.882;2023-07-20T03:13:48;15.90;99.90
75210;DHT22;63796;53.136;14.882;2023-07-20T03:16:17;15.90;99.90
75210;DHT22;63796;53.136;14.882;2023-07-20T03:18:45;16.00;99.90
75210;DHT22;63796;53.136;14.882;2023-07-20T03:21:13;15.90;99.90
75210;DHT22;63796;53.136;14.882;2023-07-20T03:23:40;15.90;99.90
75210;DHT22;63796;53.136;14.882;2023-07-20T03:26:08;15.90;99.90
75210;DHT22;63796;53.136;14.882;2023-07-20T03:28:36;15.90;99.90
75210;DHT22;63796;53.136;14.882;2023-07-20T03:31:05;15.90;99.90
75210;DHT22;63796;53.136;14.882;2023-07-20T03:33:32;16.00;99.90
75210;DHT22;63796;53.136;14.882;2023-07-20T03:36:01;16.00;99.90
75210;DHT22;63796;53.136;14.882;2023-07-20T03:38:28;16.10;99.90
75210;DHT22;63796;53.136;14.882;2023-07-20T03:40:56;16.20;99.90
75210;DHT22;63796;53.136;14.882;2023-07-20T03:43:25;16.30;99.90
75210;DHT22;63796;53.136;14.882;2023-07-20T03:45:53;16.30;99.90
75210;DHT22;63796;53.136;14.882;2023-07-20T03:48:21;16.10;99.90
75210;DHT22;63796;53.136;14.882;2023-07-20T03:50:50;16.20;99.90
75210;DHT22;63796;53.136;14.882;2023-07-20T03:53:19;16.20;99.90
75210;DHT22;63796;53.136;14.882;2023-07-20T03:55:47;16.20;99.90
75210;DHT22;63796;53.136;14.882;2023-07-20T03:58:15;16.00;99.90
75210;DHT22;63796;53.136;14.882;2023-07-20T04:00:46;15.80;99.90
75210;DHT22;63796;53.136;14.882;2023-07-20T04:03:14;15.80;99.90
75210;DHT22;63796;53.136;14.882;2023-07-20T04:05:42;15.70;99.90
75210;DHT22;63796;53.136;14.882;2023-07-20T04:08:10;15.80;99.90
75210;DHT22;63796;53.136;14.882;2023-07-20T04:10:38;16.00;99.90
75210;DHT22;63796;53.136;14.882;2023-07-20T04:13:06;16.10;99.90
75210;DHT22;63796;53.136;14.882;2023-07-20T04:15:34;16.20;99.90
75210;DHT22;63796;53.136;14.882;2023-07-20T04:18:01;16.30;99.90
75210;DHT22;63796;53.136;14.882;2023-07-20T04:20:28;16.30;99.90
75210;DHT22;63796;53.136;14.882;2023-07-20T04:22:55;16.60;99.90
75210;DHT22;63796;53.136;14.882;2023-07-20T04:25:23;16.70;99.90
75210;DHT22;63796;53.136;14.882;2023-07-20T04:27:50;17.10;99.90
75210;DHT22;63796;53.136;14.882;2023-07-20T04:30:18;17.60;99.90
75210;DHT22;63796;53.136;14.882;2023-07-20T04:32:49;17.90;99.90
75210;DHT22;63796;53.136;14.882;2023-07-20T04:35:18;17.60;99.90
75210;DHT22;63796;53.136;14.882;2023-07-20T04:38:05;17.40;99.90
75210;DHT22;63796;53.136;14.882;2023-07-20T04:40:32;17.20;99.90
75210;DHT22;63796;53.136;14.882;2023-07-20T04:43:00;17.40;99.90
75210;DHT22;63796;53.136;14.882;2023-07-20T04:45:27;17.40;99.90
75210;DHT22;63796;53.136;14.882;2023-07-20T04:47:54;17.30;99.90
75210;DHT22;63796;53.136;14.882;2023-07-20T04:50:21;17.20;99.90
75210;DHT22;63796;53.136;14.882;2023-07-20T04:52:49;17.20;99.90
75210;DHT22;63796;53.136;14.882;2023-07-20T04:55:16;17.50;99.90
75210;DHT22;63796;53.136;14.882;2023-07-20T04:57:44;17.60;99.90
75210;DHT22;63796;53.136;14.882;2023-07-20T05:00:11;18.80;99.90
75210;DHT22;63796;53.136;14.882;2023-07-20T05:02:40;19.70;99.90
75210;DHT22;63796;53.136;14.882;2023-07-20T05:05:07;20.00;99.90
75210;DHT22;63796;53.136;14.882;2023-07-20T05:07:34;21.30;99.90
75210;DHT22;63796;53.136;14.882;2023-07-20T05:10:01;22.10;99.90
75210;DHT22;63796;53.136;14.882;2023-07-20T05:12:29;21.30;99.90
75210;DHT22;63796;53.136;14.882;2023-07-20T05:14:56;21.10;99.90
75210;DHT22;63796;53.136;14.882;2023-07-20T05:17:23;20.20;99.90
75210;DHT22;63796;53.136;14.882;2023-07-20T05:19:51;19.60;99.90
75210;DHT22;63796;53.136;14.882;2023-07-20T05:22:19;19.30;99.90
75210;DHT22;63796;53.136;14.882;2023-07-20T05:24:46;18.90;99.90
75210;DHT22;63796;53.136;14.882;2023-07-20T05:27:13;18.70;99.90
75210;DHT22;63796;53.136;14.882;2023-07-20T05:29:44;18.80;99.90
75210;DHT22;63796;53.136;14.882;2023-07-20T05:32:12;19.10;99.90
75210;DHT22;63796;53.136;14.882;2023-07-20T05:34:40;19.40;99.90
75210;DHT22;63796;53.136;14.882;2023-07-20T05:37:07;20.00;99.90
75210;DHT22;63796;53.136;14.882;2023-07-20T05:39:36;20.10;99.90
75210;DHT22;63796;53.136;14.882;2023-07-20T05:42:03;20.40;99.90
75210;DHT22;63796;53.136;14.882;2023-07-20T05:44:31;20.50;99.90
75210;DHT22;63796;53.136;14.882;2023-07-20T05:46:58;20.50;99.90
75210;DHT22;63796;53.136;14.882;2023-07-20T05:49:25;21.00;99.90
75210;DHT22;63796;53.136;14.882;2023-07-20T05:51:53;21.50;99.90
75210;DHT22;63796;53.136;14.882;2023-07-20T05:54:20;23.00;99.90
75210;DHT22;63796;53.136;14.882;2023-07-20T05:56:48;25.30;99.90
75210;DHT22;63796;53.136;14.882;2023-07-20T05:59:16;26.50;99.90
75210;DHT22;63796;53.136;14.882;2023-07-20T06:01:43;26.30;99.90
75210;DHT22;63796;53.136;14.882;2023-07-20T06:04:11;28.60;99.90
75210;DHT22;63796;53.136;14.882;2023-07-20T06:06:38;30.80;99.90
75210;DHT22;63796;53.136;14.882;2023-07-20T06:09:05;31.20;99.90
75210;DHT22;63796;53.136;14.882;2023-07-20T06:11:36;31.80;99.90
75210;DHT22;63796;53.136;14.882;2023-07-20T06:14:03;30.40;99.90
75210;DHT22;63796;53.136;14.882;2023-07-20T06:16:31;27.10;99.90
75210;DHT22;63796;53.136;14.882;2023-07-20T06:18:59;25.70;99.90
75210;DHT22;63796;53.136;14.882;2023-07-20T06:21:27;24.70;99.90
75210;DHT22;63796;53.136;14.882;2023-07-20T06:23:54;24.10;99.90
75210;DHT22;63796;53.136;14.882;2023-07-20T06:26:21;24.20;99.90
75210;DHT22;63796;53.136;14.882;2023-07-20T06:28:49;24.30;99.90
75210;DHT22;63796;53.136;14.882;2023-07-20T06:31:16;24.70;99.90
75210;DHT22;63796;53.136;14.882;2023-07-20T06:33:44;25.10;99.90
75210;DHT22;63796;53.136;14.882;2023-07-20T06:36:11;25.30;99.90
75210;DHT22;63796;53.136;14.882;2023-07-20T06:38:38;25.90;99.90
75210;DHT22;63796;53.136;14.882;2023-07-20T06:41:06;25.40;99.90
75210;DHT22;63796;53.136;14.882;2023-07-20T06:43:36;24.20;99.90
75210;DHT22;63796;53.136;14.882;2023-07-20T06:46:06;24.70;99.90
75210;DHT22;63796;53.136;14.882;2023-07-20T06:48:33;24.70;99.90
75210;DHT22;63796;53.136;14.882;2023-07-20T06:51:20;24.50;99.90
75210;DHT22;63796;53.136;14.882;2023-07-20T06:53:49;28.30;99.90
75210;DHT22;63796;53.136;14.882;2023-07-20T06:56:16;26.30;99.90
75210;DHT22;63796;53.136;14.882;2023-07-20T06:58:45;29.10;99.90
75210;DHT22;63796;53.136;14.882;2023-07-20T07:01:13;30.10;99.90
75210;DHT22;63796;53.136;14.882;2023-07-20T07:03:41;28.60;99.90
75210;DHT22;63796;53.136;14.882;2023-07-20T07:06:08;30.10;99.90
75210;DHT22;63796;53.136;14.882;2023-07-20T07:08:36;32.20;99.90
75210;DHT22;63796;53.136;14.882;2023-07-20T07:11:03;31.70;98.00
75210;DHT22;63796;53.136;14.882;2023-07-20T07:13:31;29.70;99.70
75210;DHT22;63796;53.136;14.882;2023-07-20T07:15:58;28.30;99.90
75210;DHT22;63796;53.136;14.882;2023-07-20T07:18:25;27.20;99.90
75210;DHT22;63796;53.136;14.882;2023-07-20T07:20:53;26.80;99.90
75210;DHT22;63796;53.136;14.882;2023-07-20T07:23:20;26.40;99.90
75210;DHT22;63796;53.136;14.882;2023-07-20T07:25:48;26.30;99.90
75210;DHT22;63796;53.136;14.882;2023-07-20T07:28:15;26.00;99.90
75210;DHT22;63796;53.136;14.882;2023-07-20T07:30:42;26.80;99.90
75210;DHT22;63796;53.136;14.882;2023-07-20T07:33:09;27.30;99.90
75210;DHT22;63796;53.136;14.882;2023-07-20T07:35:37;26.50;99.90
75210;DHT22;63796;53.136;14.882;2023-07-20T07:38:04;25.20;99.90
75210;DHT22;63796;53.136;14.882;2023-07-20T07:40:53;24.50;99.90
75210;DHT22;63796;53.136;14.882;2023-07-20T07:43:20;27.80;99.90
75210;DHT22;63796;53.136;14.882;2023-07-20T07:45:48;31.30;99.40
75210;DHT22;63796;53.136;14.882;2023-07-20T07:48:15;33.50;94.60
75210;DHT22;63796;53.136;14.882;2023-07-20T07:50:42;33.40;94.00
75210;DHT22;63796;53.136;14.882;2023-07-20T07:53:10;31.60;95.10
75210;DHT22;63796;53.136;14.882;2023-07-20T07:55:37;29.00;98.80
75210;DHT22;63796;53.136;14.882;2023-07-20T07:58:04;27.50;99.90
75210;DHT22;63796;53.136;14.882;2023-07-20T08:00:31;26.90;99.90
75210;DHT22;63796;53.136;14.882;2023-07-20T08:02:59;26.40;99.90
75210;DHT22;63796;53.136;14.882;2023-07-20T08:05:27;26.60;99.90
75210;DHT22;63796;53.136;14.882;2023-07-20T08:07:54;26.80;99.90
75210;DHT22;63796;53.136;14.882;2023-07-20T08:10:22;27.50;99.90
75210;DHT22;63796;53.136;14.882;2023-07-20T08:12:49;27.60;99.90
75210;DHT22;63796;53.136;14.882;2023-07-20T08:15:16;27.70;99.90
75210;DHT22;63796;53.136;14.882;2023-07-20T08:17:44;29.80;99.30
75210;DHT22;63796;53.136;14.882;2023-07-20T08:20:12;30.60;96.80
75210;DHT22;63796;53.136;14.882;2023-07-20T08:22:40;28.40;99.80
75210;DHT22;63796;53.136;14.882;2023-07-20T08:25:07;26.40;99.90
75210;DHT22;63796;53.136;14.882;2023-07-20T08:27:36;29.10;98.60
75210;DHT22;63796;53.136;14.882;2023-07-20T08:30:05;33.50;94.40
75210;DHT22;63796;53.136;14.882;2023-07-20T08:32:32;33.20;91.30
75210;DHT22;63796;53.136;14.882;2023-07-20T08:35:00;29.70;94.60
75210;DHT22;63796;53.136;14.882;2023-07-20T08:37:27;30.60;92.00
75210;DHT22;63796;53.136;14.882;2023-07-20T08:39:54;35.00;90.00
75210;DHT22;63796;53.136;14.882;2023-07-20T08:42:22;38.50;78.60
75210;DHT22;63796;53.136;14.882;2023-07-20T08:44:50;40.10;71.20
75210;DHT22;63796;53.136;14.882;2023-07-20T08:47:19;39.60;67.30
75210;DHT22;63796;53.136;14.882;2023-07-20T08:49:50;38.90;68.50
75210;DHT22;63796;53.136;14.882;2023-07-20T08:52:19;36.00;71.60
75210;DHT22;63796;53.136;14.882;2023-07-20T08:54:46;32.40;78.10
75210;DHT22;63796;53.136;14.882;2023-07-20T08:57:14;31.90;80.10
75210;DHT22;63796;53.136;14.882;2023-07-20T08:59:42;32.00;80.00
75210;DHT22;63796;53.136;14.882;2023-07-20T09:02:10;35.10;74.70
75210;DHT22;63796;53.136;14.882;2023-07-20T09:04:45;37.00;70.70
75210;DHT22;63796;53.136;14.882;2023-07-20T09:07:13;34.10;74.20
75210;DHT22;63796;53.136;14.882;2023-07-20T09:09:41;29.90;83.30
75210;DHT22;63796;53.136;14.882;2023-07-20T09:12:15;27.60;89.60
75210;DHT22;63796;53.136;14.882;2023-07-20T09:14:43;26.60;92.30
75210;DHT22;63796;53.136;14.882;2023-07-20T09:17:14;25.90;94.50
75210;DHT22;63796;53.136;14.882;2023-07-20T09:19:47;23.90;99.90
75210;DHT22;63796;53.136;14.882;2023-07-20T09:22:15;23.00;99.90
75210;DHT22;63796;53.136;14.882;2023-07-20T09:24:44;22.80;99.90
75210;DHT22;63796;53.136;14.882;2023-07-20T09:27:11;22.90;99.90
75210;DHT22;63796;53.136;14.882;2023-07-20T09:29:51;22.70;99.90
75210;DHT22;63796;53.136;14.882;2023-07-20T09:32:19;23.00;99.90
75210;DHT22;63796;53.136;14.882;2023-07-20T09:34:51;23.10;99.90
75210;DHT22;63796;53.136;14.882;2023-07-20T09:37:22;23.20;99.90
75210;DHT22;63796;53.136;14.882;2023-07-20T09:39:53;23.00;99.90
75210;DHT22;63796;53.136;14.882;2023-07-20T09:42:23;23.30;99.90
75210;DHT22;63796;53.136;14.882;2023-07-20T09:44:57;23.40;99.90
75210;DHT22;63796;53.136;14.882;2023-07-20T09:47:24;23.00;99.90
75210;DHT22;63796;53.136;14.882;2023-07-20T09:49:57;23.20;99.90
75210;DHT22;63796;53.136;14.882;2023-07-20T09:52:30;23.30;99.90
75210;DHT22;63796;53.136;14.882;2023-07-20T09:55:01;23.10;99.90
75210;DHT22;63796;53.136;14.882;2023-07-20T09:57:30;22.90;99.90
75210;DHT22;63796;53.136;14.882;2023-07-20T09:59:59;23.30;99.90
75210;DHT22;63796;53.136;14.882;2023-07-20T10:02:33;23.50;99.90
75210;DHT22;63796;53.136;14.882;2023-07-20T10:05:02;23.40;99.90
75210;DHT22;63796;53.136;14.882;2023-07-20T10:07:35;23.10;99.90
75210;DHT22;63796;53.136;14.882;2023-07-20T10:10:07;24.70;99.90
75210;DHT22;63796;53.136;14.882;2023-07-20T10:12:38;29.10;99.90
75210;DHT22;63796;53.136;14.882;2023-07-20T10:17:35;35.10;82.70
75210;DHT22;63796;53.136;14.882;2023-07-20T10:20:07;31.00;83.50
75210;DHT22;63796;53.136;14.882;2023-07-20T10:22:36;29.40;88.00
75210;DHT22;63796;53.136;14.882;2023-07-20T10:25:08;29.60;88.80
75210;DHT22;63796;53.136;14.882;2023-07-20T10:27:36;29.00;90.00
75210;DHT22;63796;53.136;14.882;2023-07-20T10:30:06;29.00;90.90
75210;DHT22;63796;53.136;14.882;2023-07-20T10:32:34;28.90;90.20
75210;DHT22;63796;53.136;14.882;2023-07-20T10:35:01;28.20;90.30
75210;DHT22;63796;53.136;14.882;2023-07-20T10:37:46;27.30;91.70
75210;DHT22;63796;53.136;14.882;2023-07-20T10:40:27;25.70;93.70
75210;DHT22;63796;53.136;14.882;2023-07-20T10:43:05;25.10;95.20
75210;DHT22;63796;53.136;14.882;2023-07-20T10:51:08;27.00;94.80
75210;DHT22;63796;53.136;14.882;2023-07-20T10:54:01;26.20;96.30
75210;DHT22;63796;53.136;14.882;2023-07-20T10:56:29;27.20;98.50
75210;DHT22;63796;53.136;14.882;2023-07-20T10:59:00;28.00;97.10
75210;DHT22;63796;53.136;14.882;2023-07-20T11:01:35;27.20;98.00
75210;DHT22;63796;53.136;14.882;2023-07-20T11:04:05;26.60;99.90
75210;DHT22;63796;53.136;14.882;2023-07-20T11:06:35;25.50;99.90
75210;DHT22;63796;53.136;14.882;2023-07-20T11:09:09;25.30;99.90
75210;DHT22;63796;53.136;14.882;2023-07-20T11:11:38;25.40;99.90
75210;DHT22;63796;53.136;14.882;2023-07-20T11:14:22;26.10;99.90
75210;DHT22;63796;53.136;14.882;2023-07-20T11:16:52;26.50;99.90
75210;DHT22;63796;53.136;14.882;2023-07-20T11:19:21;26.20;99.90
75210;DHT22;63796;53.136;14.882;2023-07-20T11:21:56;26.10;99.90
75210;DHT22;63796;53.136;14.882;2023-07-20T11:24:27;27.50;98.20
75210;DHT22;63796;53.136;14.882;2023-07-20T11:26:54;28.50;94.70
75210;DHT22;63796;53.136;14.882;2023-07-20T11:29:22;26.80;98.10
75210;DHT22;63796;53.136;14.882;2023-07-20T11:31:59;25.60;99.90
75210;DHT22;63796;53.136;14.882;2023-07-20T11:34:29;25.00;99.90
75210;DHT22;63796;53.136;14.882;2023-07-20T11:36:57;24.50;99.90
75210;DHT22;63796;53.136;14.882;2023-07-20T11:39:27;23.90;99.90
75210;DHT22;63796;53.136;14.882;2023-07-20T11:41:56;23.40;99.90
75210;DHT22;63796;53.136;14.882;2023-07-20T11:44:25;23.40;99.90
75210;DHT22;63796;53.136;14.882;2023-07-20T11:47:04;23.50;99.90
75210;DHT22;63796;53.136;14.882;2023-07-20T11:49:35;23.50;99.90
75210;DHT22;63796;53.136;14.882;2023-07-20T11:52:08;27.30;99.90
75210;DHT22;63796;53.136;14.882;2023-07-20T11:54:44;26.70;99.90
75210;DHT22;63796;53.136;14.882;2023-07-20T11:57:18;29.30;97.20
75210;DHT22;63796;53.136;14.882;2023-07-20T11:59:56;31.70;93.80
75210;DHT22;63796;53.136;14.882;2023-07-20T12:02:29;33.70;88.40
75210;DHT22;63796;53.136;14.882;2023-07-20T12:04:57;31.40;91.10
75210;DHT22;63796;53.136;14.882;2023-07-20T12:07:26;28.70;93.60
75210;DHT22;63796;53.136;14.882;2023-07-20T12:12:38;25.70;98.10
75210;DHT22;63796;53.136;14.882;2023-07-20T12:17:44;25.70;96.30
75210;DHT22;63796;53.136;14.882;2023-07-20T12:20:12;26.00;96.40
75210;DHT22;63796;53.136;14.882;2023-07-20T12:22:40;25.90;97.20
75210;DHT22;63796;53.136;14.882;2023-07-20T12:25:08;25.30;99.40
75210;DHT22;63796;53.136;14.882;2023-07-20T12:27:36;24.90;99.90
75210;DHT22;63796;53.136;14.882;2023-07-20T12:30:05;25.20;99.90
75210;DHT22;63796;53.136;14.882;2023-07-20T12:32:33;25.20;99.90
75210;DHT22;63796;53.136;14.882;2023-07-20T12:35:01;25.60;99.20
75210;DHT22;63796;53.136;14.882;2023-07-20T12:37:28;26.20;99.80
75210;DHT22;63796;53.136;14.882;2023-07-20T12:39:55;25.10;99.90
75210;DHT22;63796;53.136;14.882;2023-07-20T12:42:23;24.60;99.90
75210;DHT22;63796;53.136;14.882;2023-07-20T12:44:50;25.40;97.30
75210;DHT22;63796;53.136;14.882;2023-07-20T12:47:17;25.60;96.90
75210;DHT22;63796;53.136;14.882;2023-07-20T12:49:45;25.20;95.20
75210;DHT22;63796;53.136;14.882;2023-07-20T12:52:13;24.20;95.90
75210;DHT22;63796;53.136;14.882;2023-07-20T12:54:41;24.60;96.30
75210;DHT22;63796;53.136;14.882;2023-07-20T12:57:08;24.80;96.10
75210;DHT22;63796;53.136;14.882;2023-07-20T12:59:39;24.80;96.70
75210;DHT22;63796;53.136;14.882;2023-07-20T13:02:06;24.70;98.10
75210;DHT22;63796;53.136;14.882;2023-07-20T13:04:33;24.30;96.50
75210;DHT22;63796;53.136;14.882;2023-07-20T13:07:01;24.10;97.30
75210;DHT22;63796;53.136;14.882;2023-07-20T13:09:48;24.50;96.30
75210;DHT22;63796;53.136;14.882;2023-07-20T13:12:15;24.50;96.80
75210;DHT22;63796;53.136;14.882;2023-07-20T13:14:43;25.10;96.80
75210;DHT22;63796;53.136;14.882;2023-07-20T13:17:10;25.00;94.00
75210;DHT22;63796;53.136;14.882;2023-07-20T13:19:37;25.20;92.40
75210;DHT22;63796;53.136;14.882;2023-07-20T13:22:05;25.40;91.30
75210;DHT22;63796;53.136;14.882;2023-07-20T13:24:32;25.50;89.00
75210;DHT22;63796;53.136;14.882;2023-07-20T13:26:59;24.80;90.70
75210;DHT22;63796;53.136;14.882;2023-07-20T13:29:29;25.10;91.30
75210;DHT22;63796;53.136;14.882;2023-07-20T13:31:56;24.80;90.90
75210;DHT22;63796;53.136;14.882;2023-07-20T13:34:25;24.50;91.00
75210;DHT22;63796;53.136;14.882;2023-07-20T13:36:58;24.90;92.10
75210;DHT22;63796;53.136;14.882;2023-07-20T13:39:27;24.60;90.80
75210;DHT22;63796;53.136;14.882;2023-07-20T13:41:55;24.60;91.30
75210;DHT22;63796;53.136;14.882;2023-07-20T13:44:22;24.90;91.60
75210;DHT22;63796;53.136;14.882;2023-07-20T13:46:50;25.40;91.70
75210;DHT22;63796;53.136;14.882;2023-07-20T13:49:17;25.60;91.80
75210;DHT22;63796;53.136;14.882;2023-07-20T13:51:49;25.10;91.30
75210;DHT22;63796;53.136;14.882;2023-07-20T13:54:36;25.30;91.00
75210;DHT22;63796;53.136;14.882;2023-07-20T13:57:12;25.20;91.90
75210;DHT22;63796;53.136;14.882;2023-07-20T13:59:41;25.30;90.70
75210;DHT22;63796;53.136;14.882;2023-07-20T14:02:09;24.90;90.30
75210;DHT22;63796;53.136;14.882;2023-07-20T14:04:39;24.70;90.40
75210;DHT22;63796;53.136;14.882;2023-07-20T14:07:07;25.00;90.70
75210;DHT22;63796;53.136;14.882;2023-07-20T14:09:35;25.20;90.70
75210;DHT22;63796;53.136;14.882;2023-07-20T14:12:02;25.10;90.00
75210;DHT22;63796;53.136;14.882;2023-07-20T14:14:32;25.10;90.50
75210;DHT22;63796;53.136;14.882;2023-07-20T14:17:00;25.10;91.20
75210;DHT22;63796;53.136;14.882;2023-07-20T14:19:27;25.20;90.60
75210;DHT22;63796;53.136;14.882;2023-07-20T14:21:54;25.10;90.60
75210;DHT22;63796;53.136;14.882;2023-07-20T14:24:21;25.30;90.30
75210;DHT22;63796;53.136;14.882;2023-07-20T14:26:49;25.20;90.50
75210;DHT22;63796;53.136;14.882;2023-07-20T14:29:18;24.90;90.50
75210;DHT22;63796;53.136;14.882;2023-07-20T14:31:45;24.90;91.60
75210;DHT22;63796;53.136;14.882;2023-07-20T14:34:19;24.90;91.00
75210;DHT22;63796;53.136;14.882;2023-07-20T14:36:46;25.00;91.00
75210;DHT22;63796;53.136;14.882;2023-07-20T14:39:13;24.70;90.00
75210;DHT22;63796;53.136;14.882;2023-07-20T14:41:41;24.60;90.90
75210;DHT22;63796;53.136;14.882;2023-07-20T14:44:08;25.00;90.60
75210;DHT22;63796;53.136;14.882;2023-07-20T14:46:37;25.10;91.20
75210;DHT22;63796;53.136;14.882;2023-07-20T14:49:04;24.70;90.50
75210;DHT22;63796;53.136;14.882;2023-07-20T14:51:32;24.60;91.30
75210;DHT22;63796;53.136;14.882;2023-07-20T14:54:03;24.60;91.40
75210;DHT22;63796;53.136;14.882;2023-07-20T14:56:30;24.50;91.80
75210;DHT22;63796;53.136;14.882;2023-07-20T14:58:57;24.40;91.60
75210;DHT22;63796;53.136;14.882;2023-07-20T15:01:27;24.20;91.70
75210;DHT22;63796;53.136;14.882;2023-07-20T15:03:54;24.20;91.40
75210;DHT22;63796;53.136;14.882;2023-07-20T15:06:25;24.50;90.90
75210;DHT22;63796;53.136;14.882;2023-07-20T15:08:53;24.60;91.30
75210;DHT22;63796;53.136;14.882;2023-07-20T15:11:20;24.80;92.00
75210;DHT22;63796;53.136;14.882;2023-07-20T15:13:47;25.20;91.30
75210;DHT22;63796;53.136;14.882;2023-07-20T15:16:15;25.50;91.30
75210;DHT22;63796;53.136;14.882;2023-07-20T15:18:42;25.50;91.40
75210;DHT22;63796;53.136;14.882;2023-07-20T15:21:14;25.00;89.60
75210;DHT22;63796;53.136;14.882;2023-07-20T15:23:43;24.70;90.20
75210;DHT22;63796;53.136;14.882;2023-07-20T15:26:11;24.50;88.60
75210;DHT22;63796;53.136;14.882;2023-07-20T15:28:39;24.20;88.10
75210;DHT22;63796;53.136;14.882;2023-07-20T15:31:06;23.90;89.20
75210;DHT22;63796;53.136;14.882;2023-07-20T15:33:34;23.80;90.20
75210;DHT22;63796;53.136;14.882;2023-07-20T15:36:01;23.70;90.70
75210;DHT22;63796;53.136;14.882;2023-07-20T15:38:30;23.70;90.80
75210;DHT22;63796;53.136;14.882;2023-07-20T15:40:57;23.90;90.70
75210;DHT22;63796;53.136;14.882;2023-07-20T15:43:27;23.80;91.30
75210;DHT22;63796;53.136;14.882;2023-07-20T15:46:00;23.80;91.00
75210;DHT22;63796;53.136;14.882;2023-07-20T15:48:32;23.50;91.20
75210;DHT22;63796;53.136;14.882;2023-07-20T15:50:59;23.50;91.20
75210;DHT22;63796;53.136;14.882;2023-07-20T15:53:28;23.50;91.20
75210;DHT22;63796;53.136;14.882;2023-07-20T15:55:55;23.40;91.40